sensor_id;sensor_type;location;lat;lon;timestamp;pressure;altitude;pressure_sealevel;temperature;humidity
37848;BME280;23688;33.130;-117.188;2023-09-30T00:01:41;99038.94;;;19.59;87.09
37848;BME280;23688;33.130;-117.188;2023-09-30T00:04:10;99032.81;;;19.57;86.69
37848;BME280;23688;33.130;-117.188;2023-09-30T00:06:37;99024.09;;;19.21;88.26
37848;BME280;23688;33.130;-117.188;2023-09-30T00:09:03;99018.81;;;19.22;88.37
37848;BME280;23688;33.130;-117.188;2023-09-30T00:11:31;99034.59;;;19.53;87.44
37848;BME280;23688;33.130;-117.188;2023-09-30T00:13:57;99012.69;;;19.30;86.75
37848;BME280;23688;33.130;-117.188;2023-09-30T00:16:24;99021.47;;;19.32;85.98
37848;BME280;23688;33.130;-117.188;2023-09-30T00:18:52;99028.50;;;19.10;87.12
37848;BME280;23688;33.130;-117.188;2023-09-30T00:21:19;99023.19;;;19.33;86.81
37848;BME280;23688;33.130;-117.188;2023-09-30T00:23:46;99026.66;;;19.56;85.00
37848;BME280;23688;33.130;-117.188;2023-09-30T00:26:12;99019.69;;;19.40;86.36
37848;BME280;23688;33.130;-117.188;2023-09-30T00:28:39;99010.03;;;19.36;87.16
37848;BME280;23688;33.130;-117.188;2023-09-30T00:31:11;99021.44;;;19.42;86.55
37848;BME280;23688;33.130;-117.188;2023-09-30T00:33:37;99030.22;;;19.28;86.85
37848;BME280;23688;33.130;-117.188;2023-09-30T00:36:08;99025.84;;;19.20;87.14
37848;BME280;23688;33.130;-117.188;2023-09-30T00:38:36;99035.50;;;19.14;87.47
37848;BME280;23688;33.130;-117.188;2023-09-30T00:41:03;99043.41;;;18.91;88.35
37848;BME280;23688;33.130;-117.188;2023-09-30T00:43:30;99033.69;;;18.70;89.41
37848;BME280;23688;33.130;-117.188;2023-09-30T00:46:04;99039.88;;;19.09;88.43
37848;BME280;23688;33.130;-117.188;2023-09-30T00:48:33;99037.25;;;19.32;86.87
37848;BME280;23688;33.130;-117.188;2023-09-30T00:51:00;99018.84;;;19.19;86.34
37848;BME280;23688;33.130;-117.188;2023-09-30T00:53:28;99028.50;;;19.08;87.14
37848;BME280;23688;33.130;-117.188;2023-09-30T00:55:55;99031.13;;;19.08;87.92
37848;BME280;23688;33.130;-117.188;2023-09-30T00:58:24;99015.31;;;19.11;86.55
37848;BME280;23688;33.130;-117.188;2023-09-30T01:00:56;99030.25;;;19.17;85.24
37848;BME280;23688;33.130;-117.188;2023-09-30T01:03:22;99032.88;;;19.00;85.45
37848;BME280;23688;33.130;-117.188;2023-09-30T01:05:49;99037.28;;;19.02;85.59
37848;BME280;23688;33.130;-117.188;2023-09-30T01:08:16;99030.25;;;18.94;85.67
37848;BME280;23688;33.130;-117.188;2023-09-30T01:10:44;99032.88;;;19.00;85.85
37848;BME280;23688;33.130;-117.188;2023-09-30T01:13:13;99032.00;;;19.04;85.63
37848;BME280;23688;33.130;-117.188;2023-09-30T01:15:39;99029.38;;;18.96;85.66
37848;BME280;23688;33.130;-117.188;2023-09-30T01:18:05;99038.09;;;18.66;86.85
37848;BME280;23688;33.130;-117.188;2023-09-30T01:20:32;99048.53;;;18.29;89.29
37848;BME280;23688;33.130;-117.188;2023-09-30T01:22:58;99050.13;;;17.93;91.62
37848;BME280;23688;33.130;-117.188;2023-09-30T01:25:25;99051.09;;;18.09;91.26
37848;BME280;23688;33.130;-117.188;2023-09-30T01:27:51;99027.44;;;18.14;90.75
37848;BME280;23688;33.130;-117.188;2023-09-30T01:30:17;99030.97;;;18.21;90.51
37848;BME280;23688;33.130;-117.188;2023-09-30T01:32:45;99026.66;;;18.39;89.77
37848;BME280;23688;33.130;-117.188;2023-09-30T01:35:12;99040.69;;;18.54;88.96
37848;BME280;23688;33.130;-117.188;2023-09-30T01:37:40;99038.91;;;18.42;89.04
37848;BME280;23688;33.130;-117.188;2023-09-30T01:40:07;99041.50;;;18.36;89.85
37848;BME280;23688;33.130;-117.188;2023-09-30T01:42:34;99045.91;;;18.32;90.26
37848;BME280;23688;33.130;-117.188;2023-09-30T01:45:00;99036.19;;;18.19;90.61
37848;BME280;23688;33.130;-117.188;2023-09-30T01:47:27;99041.47;;;18.24;90.60
37848;BME280;23688;33.130;-117.188;2023-09-30T01:49:53;99038.84;;;18.14;90.84
37848;BME280;23688;33.130;-117.188;2023-09-30T01:52:20;99038.75;;;17.90;92.47
37848;BME280;23688;33.130;-117.188;2023-09-30T01:54:46;99044.84;;;17.86;93.37
37848;BME280;23688;33.130;-117.188;2023-09-30T01:57:12;99027.38;;;17.95;92.58
37848;BME280;23688;33.130;-117.188;2023-09-30T01:59:41;99046.66;;;17.99;92.32
37848;BME280;23688;33.130;-117.188;2023-09-30T02:02:07;99040.50;;;17.94;92.51
37848;BME280;23688;33.130;-117.188;2023-09-30T02:04:34;99039.69;;;18.06;92.20
37848;BME280;23688;33.130;-117.188;2023-09-30T02:07:00;99037.94;;;18.11;91.78
37848;BME280;23688;33.130;-117.188;2023-09-30T02:09:26;99029.16;;;18.09;91.33
37848;BME280;23688;33.130;-117.188;2023-09-30T02:11:53;99035.31;;;18.05;91.62
37848;BME280;23688;33.130;-117.188;2023-09-30T02:14:20;99044.97;;;18.12;91.36
37848;BME280;23688;33.130;-117.188;2023-09-30T02:16:47;99030.06;;;18.09;91.21
37848;BME280;23688;33.130;-117.188;2023-09-30T02:19:16;99046.72;;;18.14;91.22
37848;BME280;23688;33.130;-117.188;2023-09-30T02:21:42;99054.56;;;18.02;91.67
37848;BME280;23688;33.130;-117.188;2023-09-30T02:24:10;99062.41;;;17.99;92.04
37848;BME280;23688;33.130;-117.188;2023-09-30T02:26:36;99060.66;;;17.98;92.13
37848;BME280;23688;33.130;-117.188;2023-09-30T02:29:04;99054.56;;;18.11;91.60
37848;BME280;23688;33.130;-117.188;2023-09-30T02:31:33;99055.53;;;18.24;91.59
37848;BME280;23688;33.130;-117.188;2023-09-30T02:33:59;99058.09;;;18.16;91.26
37848;BME280;23688;33.130;-117.188;2023-09-30T02:36:27;99055.44;;;18.09;91.62
37848;BME280;23688;33.130;-117.188;2023-09-30T02:38:54;99063.38;;;18.15;91.61
37848;BME280;23688;33.130;-117.188;2023-09-30T02:41:20;99057.22;;;18.16;91.47
37848;BME280;23688;33.130;-117.188;2023-09-30T02:43:46;99069.53;;;18.25;91.51
37848;BME280;23688;33.130;-117.188;2023-09-30T02:46:12;99065.16;;;18.22;91.38
37848;BME280;23688;33.130;-117.188;2023-09-30T02:48:39;99070.34;;;18.13;91.55
37848;BME280;23688;33.130;-117.188;2023-09-30T02:51:10;99056.25;;;17.97;92.16
37848;BME280;23688;33.130;-117.188;2023-09-30T02:53:37;99061.47;;;17.80;93.13
37848;BME280;23688;33.130;-117.188;2023-09-30T02:56:04;99075.38;;;17.71;93.62
37848;BME280;23688;33.130;-117.188;2023-09-30T02:58:30;99085.00;;;17.74;94.11
37848;BME280;23688;33.130;-117.188;2023-09-30T03:00:56;99084.03;;;17.60;94.78
37848;BME280;23688;33.130;-117.188;2023-09-30T03:03:23;99069.13;;;17.51;95.18
37848;BME280;23688;33.130;-117.188;2023-09-30T03:05:52;99074.59;;;17.86;93.60
37848;BME280;23688;33.130;-117.188;2023-09-30T03:08:18;99077.25;;;17.94;92.93
37848;BME280;23688;33.130;-117.188;2023-09-30T03:10:45;99075.53;;;17.99;92.66
37848;BME280;23688;33.130;-117.188;2023-09-30T03:13:13;99073.78;;;17.98;92.66
37848;BME280;23688;33.130;-117.188;2023-09-30T03:15:39;99068.56;;;18.04;92.28
37848;BME280;23688;33.130;-117.188;2023-09-30T03:18:06;99073.88;;;18.20;91.21
37848;BME280;23688;33.130;-117.188;2023-09-30T03:20:32;99077.38;;;18.20;91.03
37848;BME280;23688;33.130;-117.188;2023-09-30T03:22:58;99077.41;;;18.25;91.07
37848;BME280;23688;33.130;-117.188;2023-09-30T03:25:25;99073.91;;;18.26;90.74
37848;BME280;23688;33.130;-117.188;2023-09-30T03:27:51;99071.28;;;18.26;90.64
37848;BME280;23688;33.130;-117.188;2023-09-30T03:30:18;99081.72;;;18.06;91.26
37848;BME280;23688;33.130;-117.188;2023-09-30T03:32:45;99084.38;;;18.18;90.92
37848;BME280;23688;33.130;-117.188;2023-09-30T03:35:12;99089.56;;;17.98;91.89
37848;BME280;23688;33.130;-117.188;2023-09-30T03:37:48;99074.50;;;17.71;93.64
37848;BME280;23688;33.130;-117.188;2023-09-30T03:40:15;99086.00;;;17.91;93.19
37848;BME280;23688;33.130;-117.188;2023-09-30T03:42:44;99089.50;;;17.86;93.51
37848;BME280;23688;33.130;-117.188;2023-09-30T03:45:12;99091.28;;;17.94;93.19
37848;BME280;23688;33.130;-117.188;2023-09-30T03:47:40;99101.66;;;17.77;94.28
37848;BME280;23688;33.130;-117.188;2023-09-30T03:50:07;99093.78;;;17.73;94.53
37848;BME280;23688;33.130;-117.188;2023-09-30T03:52:41;99101.81;;;18.01;92.94
37848;BME280;23688;33.130;-117.188;2023-09-30T03:55:14;99093.06;;;18.02;92.36
37848;BME280;23688;33.130;-117.188;2023-09-30T03:57:41;99108.84;;;18.03;92.55
37848;BME280;23688;33.130;-117.188;2023-09-30T04:00:08;99111.28;;;17.77;93.66
37848;BME280;23688;33.130;-117.188;2023-09-30T04:02:37;99116.44;;;17.59;94.97
37848;BME280;23688;33.130;-117.188;2023-09-30T04:05:03;99125.19;;;17.62;94.99
37848;BME280;23688;33.130;-117.188;2023-09-30T04:07:31;99116.56;;;17.79;94.34
37848;BME280;23688;33.130;-117.188;2023-09-30T04:09:59;99129.84;;;18.00;93.55
37848;BME280;23688;33.130;-117.188;2023-09-30T04:12:27;99120.16;;;17.91;93.47
37848;BME280;23688;33.130;-117.188;2023-09-30T04:14:54;99109.53;;;17.79;93.74
37848;BME280;23688;33.130;-117.188;2023-09-30T04:17:20;99124.50;;;17.83;93.80
37848;BME280;23688;33.130;-117.188;2023-09-30T04:19:48;99108.88;;;18.05;92.92
37848;BME280;23688;33.130;-117.188;2023-09-30T04:22:17;99121.22;;;18.27;91.84
37848;BME280;23688;33.130;-117.188;2023-09-30T04:24:45;99113.34;;;18.30;91.72
37848;BME280;23688;33.130;-117.188;2023-09-30T04:27:11;99122.09;;;18.31;91.50
37848;BME280;23688;33.130;-117.188;2023-09-30T04:29:37;99103.66;;;18.20;91.82
37848;BME280;23688;33.130;-117.188;2023-09-30T04:32:04;99113.31;;;18.26;91.72
37848;BME280;23688;33.130;-117.188;2023-09-30T04:34:31;99106.31;;;18.25;91.26
37848;BME280;23688;33.130;-117.188;2023-09-30T04:36:58;99116.00;;;18.38;90.81
37848;BME280;23688;33.130;-117.188;2023-09-30T04:39:25;99116.88;;;18.43;90.27
37848;BME280;23688;33.130;-117.188;2023-09-30T04:41:51;99105.50;;;18.44;90.34
37848;BME280;23688;33.130;-117.188;2023-09-30T04:44:18;99102.88;;;18.47;90.04
37848;BME280;23688;33.130;-117.188;2023-09-30T04:46:44;99103.75;;;18.48;89.37
37848;BME280;23688;33.130;-117.188;2023-09-30T04:49:14;99106.38;;;18.48;89.56
37848;BME280;23688;33.130;-117.188;2023-09-30T04:51:45;99086.22;;;18.42;89.64
37848;BME280;23688;33.130;-117.188;2023-09-30T04:54:14;99105.50;;;18.50;89.49
37848;BME280;23688;33.130;-117.188;2023-09-30T04:56:40;99102.91;;;18.52;89.72
37848;BME280;23688;33.130;-117.188;2023-09-30T04:59:07;99088.88;;;18.53;89.51
37848;BME280;23688;33.130;-117.188;2023-09-30T05:01:33;99082.75;;;18.54;89.73
37848;BME280;23688;33.130;-117.188;2023-09-30T05:03:59;99094.16;;;18.62;89.38
37848;BME280;23688;33.130;-117.188;2023-09-30T05:06:26;99095.91;;;18.60;89.20
37848;BME280;23688;33.130;-117.188;2023-09-30T05:08:52;99080.13;;;18.49;89.57
37848;BME280;23688;33.130;-117.188;2023-09-30T05:11:19;99083.63;;;18.53;89.62
37848;BME280;23688;33.130;-117.188;2023-09-30T05:13:45;99074.88;;;18.51;89.38
37848;BME280;23688;33.130;-117.188;2023-09-30T05:16:11;99088.00;;;18.49;89.90
37848;BME280;23688;33.130;-117.188;2023-09-30T05:18:38;99076.59;;;18.39;90.12
37848;BME280;23688;33.130;-117.188;2023-09-30T05:21:04;99090.63;;;18.45;90.52
37848;BME280;23688;33.130;-117.188;2023-09-30T05:23:32;99088.00;;;18.46;90.45
37848;BME280;23688;33.130;-117.188;2023-09-30T05:25:58;99081.84;;;18.39;90.74
37848;BME280;23688;33.130;-117.188;2023-09-30T05:28:25;99082.72;;;18.37;91.00
37848;BME280;23688;33.130;-117.188;2023-09-30T05:30:51;99095.84;;;18.38;91.13
37848;BME280;23688;33.130;-117.188;2023-09-30T05:33:19;99085.31;;;18.32;91.19
37848;BME280;23688;33.130;-117.188;2023-09-30T05:35:45;99091.44;;;18.36;91.23
37848;BME280;23688;33.130;-117.188;2023-09-30T05:38:12;99110.75;;;18.39;91.14
37848;BME280;23688;33.130;-117.188;2023-09-30T05:40:39;99094.09;;;18.31;91.09
37848;BME280;23688;33.130;-117.188;2023-09-30T05:43:07;99109.00;;;18.37;91.10
37848;BME280;23688;33.130;-117.188;2023-09-30T05:45:33;99105.50;;;18.36;91.01
37848;BME280;23688;33.130;-117.188;2023-09-30T05:48:02;99109.88;;;18.37;90.94
37848;BME280;23688;33.130;-117.188;2023-09-30T05:50:33;99106.38;;;18.48;90.64
37848;BME280;23688;33.130;-117.188;2023-09-30T05:53:02;99096.75;;;18.47;90.52
37848;BME280;23688;33.130;-117.188;2023-09-30T05:55:30;99098.50;;;18.49;90.76
37848;BME280;23688;33.130;-117.188;2023-09-30T05:57:56;99109.06;;;18.54;90.93
37848;BME280;23688;33.130;-117.188;2023-09-30T06:00:24;99110.78;;;18.55;90.45
37848;BME280;23688;33.130;-117.188;2023-09-30T06:02:59;99121.34;;;18.61;90.42
37848;BME280;23688;33.130;-117.188;2023-09-30T06:05:26;99129.25;;;18.66;90.09
37848;BME280;23688;33.130;-117.188;2023-09-30T06:07:55;99130.13;;;18.69;89.94
37848;BME280;23688;33.130;-117.188;2023-09-30T06:10:22;99122.22;;;18.66;89.87
37848;BME280;23688;33.130;-117.188;2023-09-30T06:12:51;99118.72;;;18.64;89.28
37848;BME280;23688;33.130;-117.188;2023-09-30T06:15:24;99113.44;;;18.64;89.41
37848;BME280;23688;33.130;-117.188;2023-09-30T06:17:54;99097.69;;;18.61;89.67
37848;BME280;23688;33.130;-117.188;2023-09-30T06:20:21;99105.59;;;18.66;90.07
37848;BME280;23688;33.130;-117.188;2023-09-30T06:22:58;99097.69;;;18.67;89.69
37848;BME280;23688;33.130;-117.188;2023-09-30T06:25:24;99104.69;;;18.65;89.96
37848;BME280;23688;33.130;-117.188;2023-09-30T06:27:51;99102.94;;;18.69;89.62
37848;BME280;23688;33.130;-117.188;2023-09-30T06:30:18;99088.91;;;18.64;89.50
37848;BME280;23688;33.130;-117.188;2023-09-30T06:32:45;99093.28;;;18.68;89.50
37848;BME280;23688;33.130;-117.188;2023-09-30T06:35:13;99086.28;;;18.62;89.65
37848;BME280;23688;33.130;-117.188;2023-09-30T06:37:40;99071.34;;;18.55;90.18
37848;BME280;23688;33.130;-117.188;2023-09-30T06:40:08;99075.72;;;18.53;90.46
37848;BME280;23688;33.130;-117.188;2023-09-30T06:42:35;99065.19;;;18.42;90.72
37848;BME280;23688;33.130;-117.188;2023-09-30T06:45:03;99062.56;;;18.45;90.80
37848;BME280;23688;33.130;-117.188;2023-09-30T06:47:40;99064.31;;;18.45;91.19
37848;BME280;23688;33.130;-117.188;2023-09-30T06:50:11;99076.59;;;18.41;91.60
37848;BME280;23688;33.130;-117.188;2023-09-30T06:52:42;99068.69;;;18.36;91.79
37848;BME280;23688;33.130;-117.188;2023-09-30T06:55:11;99072.16;;;18.31;92.15
37848;BME280;23688;33.130;-117.188;2023-09-30T06:57:41;99057.22;;;18.16;92.72
37848;BME280;23688;33.130;-117.188;2023-09-30T07:00:12;99064.22;;;18.11;93.39
37848;BME280;23688;33.130;-117.188;2023-09-30T07:02:39;99078.22;;;18.11;93.82
37848;BME280;23688;33.130;-117.188;2023-09-30T07:05:10;99069.41;;;18.02;93.94
37848;BME280;23688;33.130;-117.188;2023-09-30T07:07:37;99080.84;;;18.05;94.03
37848;BME280;23688;33.130;-117.188;2023-09-30T07:10:04;99083.44;;;18.01;94.26
37848;BME280;23688;33.130;-117.188;2023-09-30T07:12:31;99099.22;;;18.08;94.11
37848;BME280;23688;33.130;-117.188;2023-09-30T07:15:02;99094.88;;;18.10;93.90
37848;BME280;23688;33.130;-117.188;2023-09-30T07:17:28;99092.22;;;18.03;93.94
37848;BME280;23688;33.130;-117.188;2023-09-30T07:19:55;99106.25;;;18.11;93.79
37848;BME280;23688;33.130;-117.188;2023-09-30T07:22:22;99094.84;;;18.06;93.43
37848;BME280;23688;33.130;-117.188;2023-09-30T07:24:48;99098.34;;;18.06;93.65
37848;BME280;23688;33.130;-117.188;2023-09-30T07:27:16;99095.72;;;18.05;93.63
37848;BME280;23688;33.130;-117.188;2023-09-30T07:29:43;99088.72;;;18.02;93.81
37848;BME280;23688;33.130;-117.188;2023-09-30T07:32:10;99109.75;;;18.10;94.02
37848;BME280;23688;33.130;-117.188;2023-09-30T07:34:36;99108.00;;;18.10;93.69
37848;BME280;23688;33.130;-117.188;2023-09-30T07:37:03;99114.16;;;18.17;93.50
37848;BME280;23688;33.130;-117.188;2023-09-30T07:39:29;99118.56;;;18.20;93.36
37848;BME280;23688;33.130;-117.188;2023-09-30T07:41:58;99118.59;;;18.24;93.13
37848;BME280;23688;33.130;-117.188;2023-09-30T07:44:24;99126.47;;;18.27;92.98
37848;BME280;23688;33.130;-117.188;2023-09-30T07:46:51;99135.22;;;18.28;92.89
37848;BME280;23688;33.130;-117.188;2023-09-30T07:49:18;99134.38;;;18.33;92.72
37848;BME280;23688;33.130;-117.188;2023-09-30T07:51:44;99127.38;;;18.35;92.05
37848;BME280;23688;33.130;-117.188;2023-09-30T07:54:12;99130.91;;;18.42;91.69
37848;BME280;23688;33.130;-117.188;2023-09-30T07:56:40;99123.03;;;18.44;91.43
37848;BME280;23688;33.130;-117.188;2023-09-30T07:59:06;99111.66;;;18.48;90.73
37848;BME280;23688;33.130;-117.188;2023-09-30T08:01:32;99125.69;;;18.50;91.25
37848;BME280;23688;33.130;-117.188;2023-09-30T08:03:58;99123.06;;;18.53;91.43
37848;BME280;23688;33.130;-117.188;2023-09-30T08:06:25;99130.06;;;18.52;91.38
37848;BME280;23688;33.130;-117.188;2023-09-30T08:08:51;99122.19;;;18.52;91.66
37848;BME280;23688;33.130;-117.188;2023-09-30T08:11:20;99130.97;;;18.65;90.98
37848;BME280;23688;33.130;-117.188;2023-09-30T08:13:47;99129.25;;;18.69;91.34
37848;BME280;23688;33.130;-117.188;2023-09-30T08:16:13;99116.97;;;18.63;91.20
37848;BME280;23688;33.130;-117.188;2023-09-30T08:18:39;99128.38;;;18.74;90.66
37848;BME280;23688;33.130;-117.188;2023-09-30T08:21:09;99119.59;;;18.72;89.85
37848;BME280;23688;33.130;-117.188;2023-09-30T08:23:37;99118.72;;;18.70;89.55
37848;BME280;23688;33.130;-117.188;2023-09-30T08:26:05;99109.94;;;18.59;89.79
37848;BME280;23688;33.130;-117.188;2023-09-30T08:28:32;99116.94;;;18.60;89.79
37848;BME280;23688;33.130;-117.188;2023-09-30T08:31:02;99126.63;;;18.66;89.82
37848;BME280;23688;33.130;-117.188;2023-09-30T08:33:29;99121.34;;;18.66;89.88
37848;BME280;23688;33.130;-117.188;2023-09-30T08:36:04;99090.66;;;18.51;89.77
37848;BME280;23688;33.130;-117.188;2023-09-30T08:38:35;99095.88;;;18.49;89.76
37848;BME280;23688;33.130;-117.188;2023-09-30T08:41:02;99119.56;;;18.57;90.25
37848;BME280;23688;33.130;-117.188;2023-09-30T08:43:29;99105.50;;;18.41;90.76
37848;BME280;23688;33.130;-117.188;2023-09-30T08:45:59;99112.50;;;18.45;90.81
37848;BME280;23688;33.130;-117.188;2023-09-30T08:48:30;99109.91;;;18.44;91.76
37848;BME280;23688;33.130;-117.188;2023-09-30T08:50:59;99119.53;;;18.42;91.89
37848;BME280;23688;33.130;-117.188;2023-09-30T08:53:26;99113.38;;;18.46;92.34
37848;BME280;23688;33.130;-117.188;2023-09-30T08:55:55;99116.03;;;18.50;92.10
37848;BME280;23688;33.130;-117.188;2023-09-30T08:58:27;99114.31;;;18.54;92.39
37848;BME280;23688;33.130;-117.188;2023-09-30T09:00:55;99115.16;;;18.53;91.63
37848;BME280;23688;33.130;-117.188;2023-09-30T09:03:23;99096.75;;;18.45;91.82
37848;BME280;23688;33.130;-117.188;2023-09-30T09:05:54;99097.59;;;18.38;92.40
37848;BME280;23688;33.130;-117.188;2023-09-30T09:08:23;99098.47;;;18.43;92.64
37848;BME280;23688;33.130;-117.188;2023-09-30T09:10:57;99094.09;;;18.40;92.74
37848;BME280;23688;33.130;-117.188;2023-09-30T09:13:27;99085.34;;;18.45;93.02
37848;BME280;23688;33.130;-117.188;2023-09-30T09:16:07;99081.84;;;18.47;93.23
37848;BME280;23688;33.130;-117.188;2023-09-30T09:18:34;99066.94;;;18.43;92.91
37848;BME280;23688;33.130;-117.188;2023-09-30T09:21:21;99071.34;;;18.49;93.29
37848;BME280;23688;33.130;-117.188;2023-09-30T09:23:50;99072.19;;;18.38;93.54
37848;BME280;23688;33.130;-117.188;2023-09-30T09:28:56;99077.44;;;18.34;94.31
37848;BME280;23688;33.130;-117.188;2023-09-30T09:31:27;99073.06;;;18.37;94.35
37848;BME280;23688;33.130;-117.188;2023-09-30T09:33:54;99067.81;;;18.37;94.17
37848;BME280;23688;33.130;-117.188;2023-09-30T09:36:21;99073.06;;;18.40;93.80
37848;BME280;23688;33.130;-117.188;2023-09-30T09:39:04;99067.81;;;18.37;94.09
37848;BME280;23688;33.130;-117.188;2023-09-30T09:41:30;99053.78;;;18.35;94.18
37848;BME280;23688;33.130;-117.188;2023-09-30T09:43:59;99061.69;;;18.37;94.22
37848;BME280;23688;33.130;-117.188;2023-09-30T09:46:25;99066.97;;;18.48;94.01
37848;BME280;23688;33.130;-117.188;2023-09-30T09:48:54;99059.94;;;18.45;93.81
37848;BME280;23688;33.130;-117.188;2023-09-30T09:51:21;99066.09;;;18.50;94.29
37848;BME280;23688;33.130;-117.188;2023-09-30T09:53:48;99067.84;;;18.53;94.36
37848;BME280;23688;33.130;-117.188;2023-09-30T09:56:17;99072.25;;;18.57;94.20
37848;BME280;23688;33.130;-117.188;2023-09-30T09:58:44;99072.25;;;18.60;93.94
37848;BME280;23688;33.130;-117.188;2023-09-30T10:01:13;99074.88;;;18.60;93.79
37848;BME280;23688;33.130;-117.188;2023-09-30T10:03:41;99056.47;;;18.51;93.72
37848;BME280;23688;33.130;-117.188;2023-09-30T10:06:08;99073.13;;;18.62;93.94
37848;BME280;23688;33.130;-117.188;2023-09-30T10:08:38;99064.38;;;18.66;93.65
37848;BME280;23688;33.130;-117.188;2023-09-30T10:11:07;99066.13;;;18.67;93.13
37848;BME280;23688;33.130;-117.188;2023-09-30T10:13:56;99061.75;;;18.69;93.29
37848;BME280;23688;33.130;-117.188;2023-09-30T10:19:21;99061.75;;;18.58;92.76
37848;BME280;23688;33.130;-117.188;2023-09-30T10:24:57;99053.84;;;18.60;92.72
37848;BME280;23688;33.130;-117.188;2023-09-30T10:40:52;99038.06;;;18.68;91.86
37848;BME280;23688;33.130;-117.188;2023-09-30T10:43:31;99015.28;;;18.59;91.85
37848;BME280;23688;33.130;-117.188;2023-09-30T10:45:59;99018.78;;;18.63;91.30
37848;BME280;23688;33.130;-117.188;2023-09-30T10:51:17;99024.91;;;18.55;91.73
37848;BME280;23688;33.130;-117.188;2023-09-30T10:53:52;99038.94;;;18.51;91.99
37848;BME280;23688;33.130;-117.188;2023-09-30T10:56:23;99003.88;;;18.37;91.80
37848;BME280;23688;33.130;-117.188;2023-09-30T10:58:59;99024.91;;;18.45;92.17
37848;BME280;23688;33.130;-117.188;2023-09-30T11:01:37;99038.94;;;18.44;92.40
37848;BME280;23688;33.130;-117.188;2023-09-30T11:04:05;99037.16;;;18.46;92.79
37848;BME280;23688;33.130;-117.188;2023-09-30T11:06:34;99033.66;;;18.42;92.56
37848;BME280;23688;33.130;-117.188;2023-09-30T11:09:01;99036.28;;;18.45;92.70
37848;BME280;23688;33.130;-117.188;2023-09-30T11:16:53;99024.94;;;18.54;92.35
37848;BME280;23688;33.130;-117.188;2023-09-30T11:19:21;99029.31;;;18.56;92.18
37848;BME280;23688;33.130;-117.188;2023-09-30T11:21:49;99021.41;;;18.41;92.34
37848;BME280;23688;33.130;-117.188;2023-09-30T11:24:15;99044.19;;;18.50;92.84
37848;BME280;23688;33.130;-117.188;2023-09-30T11:26:46;99028.41;;;18.50;92.51
37848;BME280;23688;33.130;-117.188;2023-09-30T11:29:17;99039.81;;;18.55;92.63
37848;BME280;23688;33.130;-117.188;2023-09-30T11:31:45;99038.06;;;18.51;92.83
37848;BME280;23688;33.130;-117.188;2023-09-30T11:34:15;99029.31;;;18.49;93.17
37848;BME280;23688;33.130;-117.188;2023-09-30T11:36:52;99033.69;;;18.54;93.05
37848;BME280;23688;33.130;-117.188;2023-09-30T11:39:29;99036.31;;;18.54;92.73
37848;BME280;23688;33.130;-117.188;2023-09-30T11:41:56;99031.03;;;18.47;92.84
37848;BME280;23688;33.130;-117.188;2023-09-30T11:44:26;99009.09;;;18.31;93.10
37848;BME280;23688;33.130;-117.188;2023-09-30T11:51:59;99023.06;;;18.16;94.97
37848;BME280;23688;33.130;-117.188;2023-09-30T11:56:56;99034.44;;;18.16;95.30
37848;BME280;23688;33.130;-117.188;2023-09-30T11:59:23;99033.56;;;18.13;95.56
37848;BME280;23688;33.130;-117.188;2023-09-30T12:01:49;99043.19;;;18.14;95.83
37848;BME280;23688;33.130;-117.188;2023-09-30T12:04:17;99045.81;;;18.14;96.07
37848;BME280;23688;33.130;-117.188;2023-09-30T12:06:48;99030.91;;;18.04;96.44
37848;BME280;23688;33.130;-117.188;2023-09-30T12:09:15;99025.66;;;18.04;96.67
37848;BME280;23688;33.130;-117.188;2023-09-30T12:11:43;99027.38;;;18.02;97.09
37848;BME280;23688;33.130;-117.188;2023-09-30T12:14:12;99026.53;;;18.01;96.98
37848;BME280;23688;33.130;-117.188;2023-09-30T12:16:39;99035.31;;;18.09;96.82
37848;BME280;23688;33.130;-117.188;2023-09-30T12:19:07;99022.19;;;18.12;96.83
37848;BME280;23688;33.130;-117.188;2023-09-30T12:21:34;99026.56;;;18.13;96.59
37848;BME280;23688;33.130;-117.188;2023-09-30T12:24:02;99038.84;;;18.21;96.44
37848;BME280;23688;33.130;-117.188;2023-09-30T12:26:32;99033.63;;;18.22;95.95
37848;BME280;23688;33.130;-117.188;2023-09-30T12:28:58;99042.38;;;18.27;96.12
37848;BME280;23688;33.130;-117.188;2023-09-30T12:31:25;99046.78;;;18.31;96.09
37848;BME280;23688;33.130;-117.188;2023-09-30T12:33:51;99031.00;;;18.27;95.75
37848;BME280;23688;33.130;-117.188;2023-09-30T12:36:24;99044.13;;;18.36;95.93
37848;BME280;23688;33.130;-117.188;2023-09-30T12:38:50;99039.78;;;18.43;95.54
37848;BME280;23688;33.130;-117.188;2023-09-30T12:41:16;99051.22;;;18.51;94.83
37848;BME280;23688;33.130;-117.188;2023-09-30T12:43:45;99045.06;;;18.52;94.45
37848;BME280;23688;33.130;-117.188;2023-09-30T12:46:11;99045.06;;;18.52;94.26
37848;BME280;23688;33.130;-117.188;2023-09-30T12:48:41;99044.16;;;18.48;93.86
37848;BME280;23688;33.130;-117.188;2023-09-30T12:51:07;99048.56;;;18.49;94.09
37848;BME280;23688;33.130;-117.188;2023-09-30T12:53:35;99043.31;;;18.48;93.96
37848;BME280;23688;33.130;-117.188;2023-09-30T12:56:02;99038.94;;;18.50;94.02
37848;BME280;23688;33.130;-117.188;2023-09-30T12:58:29;99059.09;;;18.57;93.92
37848;BME280;23688;33.130;-117.188;2023-09-30T13:00:56;99053.84;;;18.57;93.50
37848;BME280;23688;33.130;-117.188;2023-09-30T13:03:23;99041.53;;;18.42;93.36
37848;BME280;23688;33.130;-117.188;2023-09-30T13:05:49;99039.81;;;18.47;93.45
37848;BME280;23688;33.130;-117.188;2023-09-30T13:08:16;99049.47;;;18.51;93.88
37848;BME280;23688;33.130;-117.188;2023-09-30T13:10:42;99044.19;;;18.51;94.08
37848;BME280;23688;33.130;-117.188;2023-09-30T13:13:09;99046.81;;;18.53;94.42